N23017 KTLH-KMCO
Flight info
| Callsign | N23017 |
|---|---|
| Flight time | 2h 3m |
| Altitude | 6500 |
| Route | BITTE BRKWL JAFAR CRPIT LAMPP YAGGO |
| Aircraft | C172/L-SFG/C |
Departure
| Time | 2026-04-22 21:16 |
|---|---|
| Airport | Tallahassee International Airport (KTLH) |
Arrival
| Time | 2026-04-22 23:19 |
|---|---|
| Airport | Orlando International Airport (KMCO) |
| Time | Latitude | Longitude | Altitude | Speed | Heading |
|---|---|---|---|---|---|
| 2026-04-22 20:59 | 30.39431 | -84.34454 | 63 ft | 0 kts | 46° |
| 2026-04-22 21:06 | 30.39431 | -84.34453 | 81 ft | 0 kts | 45° |
| 2026-04-22 21:06 | 30.39435 | -84.34452 | 83 ft | 0 kts | 350° |
| 2026-04-22 21:06 | 30.39430 | -84.34462 | 63 ft | 2 kts | 178° |
| 2026-04-22 21:06 | 30.39404 | -84.34481 | 67 ft | 6 kts | 221° |
| 2026-04-22 21:07 | 30.39366 | -84.34494 | 68 ft | 4 kts | 200° |
| 2026-04-22 21:07 | 30.39345 | -84.34501 | 68 ft | 1 kts | 187° |
| 2026-04-22 21:07 | 30.39310 | -84.34484 | 69 ft | 9 kts | 120° |
| 2026-04-22 21:07 | 30.39306 | -84.34422 | 69 ft | 6 kts | 91° |
| 2026-04-22 21:08 | 30.39307 | -84.34364 | 69 ft | 10 kts | 89° |
| 2026-04-22 21:08 | 30.39308 | -84.34280 | 67 ft | 10 kts | 90° |
| 2026-04-22 21:08 | 30.39308 | -84.34211 | 67 ft | 8 kts | 88° |
| 2026-04-22 21:08 | 30.39308 | -84.34156 | 67 ft | 6 kts | 90° |
| 2026-04-22 21:09 | 30.39308 | -84.34110 | 67 ft | 5 kts | 89° |
| 2026-04-22 21:09 | 30.39309 | -84.34061 | 67 ft | 9 kts | 89° |
| 2026-04-22 21:09 | 30.39311 | -84.33982 | 66 ft | 8 kts | 91° |
| 2026-04-22 21:09 | 30.39310 | -84.33918 | 65 ft | 8 kts | 90° |
| 2026-04-22 21:10 | 30.39310 | -84.33840 | 63 ft | 10 kts | 89° |
| 2026-04-22 21:10 | 30.39312 | -84.33758 | 60 ft | 10 kts | 86° |
| 2026-04-22 21:10 | 30.39313 | -84.33680 | 59 ft | 9 kts | 89° |
| 2026-04-22 21:10 | 30.39313 | -84.33614 | 58 ft | 7 kts | 90° |
| 2026-04-22 21:11 | 30.39313 | -84.33555 | 58 ft | 8 kts | 90° |
| 2026-04-22 21:11 | 30.39314 | -84.33494 | 57 ft | 7 kts | 89° |
| 2026-04-22 21:11 | 30.39315 | -84.33430 | 57 ft | 9 kts | 87° |
| 2026-04-22 21:11 | 30.39315 | -84.33364 | 55 ft | 8 kts | 89° |
| 2026-04-22 21:12 | 30.39316 | -84.33298 | 54 ft | 9 kts | 88° |
| 2026-04-22 21:12 | 30.39316 | -84.33226 | 54 ft | 8 kts | 89° |
| 2026-04-22 21:12 | 30.39309 | -84.33162 | 54 ft | 8 kts | 125° |
| 2026-04-22 21:12 | 30.39279 | -84.33134 | 54 ft | 4 kts | 167° |
| 2026-04-22 21:13 | 30.39247 | -84.33132 | 54 ft | 4 kts | 184° |
| 2026-04-22 21:13 | 30.39232 | -84.33133 | 54 ft | 0 kts | 184° |
| 2026-04-22 21:13 | 30.39219 | -84.33134 | 54 ft | 6 kts | 187° |
| 2026-04-22 21:13 | 30.39159 | -84.33155 | 56 ft | 12 kts | 241° |
| 2026-04-22 21:14 | 30.39152 | -84.33392 | 57 ft | 48 kts | 270° |
| 2026-04-22 21:14 | 30.39150 | -84.33908 | 64 ft | 78 kts | 269° |
| 2026-04-22 21:14 | 30.39140 | -84.34590 | 140 ft | 89 kts | 269° |
| 2026-04-22 21:14 | 30.39156 | -84.35346 | 190 ft | 99 kts | 270° |
| 2026-04-22 21:15 | 30.39164 | -84.36155 | 267 ft | 101 kts | 267° |
| 2026-04-22 21:15 | 30.39162 | -84.36979 | 348 ft | 103 kts | 266° |
| 2026-04-22 21:15 | 30.39139 | -84.37806 | 452 ft | 106 kts | 259° |
| 2026-04-22 21:15 | 30.39088 | -84.38707 | 601 ft | 115 kts | 261° |
| 2026-04-22 21:16 | 30.39038 | -84.39629 | 756 ft | 115 kts | 259° |
| 2026-04-22 21:16 | 30.38997 | -84.40555 | 910 ft | 114 kts | 261° |
| 2026-04-22 21:16 | 30.38963 | -84.41470 | 1085 ft | 113 kts | 261° |
| 2026-04-22 21:16 | 30.38934 | -84.42370 | 1185 ft | 112 kts | 262° |
| 2026-04-22 21:17 | 30.38910 | -84.43279 | 1233 ft | 113 kts | 263° |
| 2026-04-22 21:17 | 30.38890 | -84.44178 | 1341 ft | 110 kts | 262° |
| 2026-04-22 21:17 | 30.38611 | -84.44910 | 1326 ft | 102 kts | 211° |
| 2026-04-22 21:17 | 30.37964 | -84.45049 | 1406 ft | 98 kts | 154° |
| 2026-04-22 21:18 | 30.37689 | -84.44335 | 1407 ft | 111 kts | 87° |
| 2026-04-22 21:18 | 30.37859 | -84.43461 | 1470 ft | 111 kts | 85° |
| 2026-04-22 21:18 | 30.38027 | -84.42592 | 1560 ft | 110 kts | 84° |
| 2026-04-22 21:18 | 30.38195 | -84.41719 | 1582 ft | 112 kts | 83° |
| 2026-04-22 21:19 | 30.38366 | -84.40838 | 1680 ft | 111 kts | 83° |
| 2026-04-22 21:19 | 30.38534 | -84.39964 | 1767 ft | 112 kts | 83° |
| 2026-04-22 21:19 | 30.38703 | -84.39082 | 1908 ft | 112 kts | 84° |
| 2026-04-22 21:19 | 30.38872 | -84.38206 | 2099 ft | 111 kts | 85° |
| 2026-04-22 21:20 | 30.39041 | -84.37332 | 2221 ft | 111 kts | 82° |
| 2026-04-22 21:20 | 30.39212 | -84.36466 | 2391 ft | 109 kts | 85° |
| 2026-04-22 21:20 | 30.39375 | -84.35605 | 2503 ft | 110 kts | 83° |
| 2026-04-22 21:20 | 30.39540 | -84.34742 | 2622 ft | 110 kts | 83° |
| 2026-04-22 21:21 | 30.39688 | -84.33880 | 2785 ft | 108 kts | 90° |
| 2026-04-22 21:21 | 30.39572 | -84.33051 | 2920 ft | 104 kts | 122° |
| 2026-04-22 21:21 | 30.39222 | -84.32321 | 3057 ft | 104 kts | 121° |
| 2026-04-22 21:21 | 30.38853 | -84.31598 | 3167 ft | 105 kts | 123° |
| 2026-04-22 21:22 | 30.38472 | -84.30878 | 3308 ft | 104 kts | 125° |
| 2026-04-22 21:22 | 30.38090 | -84.30170 | 3434 ft | 103 kts | 126° |
| 2026-04-22 21:22 | 30.37709 | -84.29470 | 3532 ft | 103 kts | 125° |
| 2026-04-22 21:22 | 30.37325 | -84.28768 | 3646 ft | 103 kts | 126° |
| 2026-04-22 21:23 | 30.36943 | -84.28073 | 3781 ft | 104 kts | 127° |
| 2026-04-22 21:23 | 30.36556 | -84.27366 | 3875 ft | 104 kts | 126° |
| 2026-04-22 21:23 | 30.36171 | -84.26661 | 3950 ft | 104 kts | 123° |
| 2026-04-22 21:23 | 30.35781 | -84.25956 | 4053 ft | 104 kts | 124° |
| 2026-04-22 21:24 | 30.35391 | -84.25244 | 4139 ft | 105 kts | 124° |
| 2026-04-22 21:24 | 30.35003 | -84.24538 | 4254 ft | 104 kts | 124° |
| 2026-04-22 21:24 | 30.34612 | -84.23830 | 4383 ft | 105 kts | 124° |
| 2026-04-22 21:24 | 30.34219 | -84.23113 | 4469 ft | 106 kts | 123° |
| 2026-04-22 21:25 | 30.33826 | -84.22398 | 4589 ft | 105 kts | 123° |
| 2026-04-22 21:25 | 30.33431 | -84.21683 | 4678 ft | 105 kts | 123° |
| 2026-04-22 21:25 | 30.33041 | -84.20973 | 4745 ft | 104 kts | 123° |
| 2026-04-22 21:25 | 30.32653 | -84.20268 | 4844 ft | 104 kts | 122° |
| 2026-04-22 21:26 | 30.32263 | -84.19560 | 4957 ft | 104 kts | 122° |
| 2026-04-22 21:26 | 30.31875 | -84.18855 | 5044 ft | 104 kts | 121° |
| 2026-04-22 21:26 | 30.31487 | -84.18152 | 5129 ft | 103 kts | 121° |
| 2026-04-22 21:26 | 30.31107 | -84.17460 | 5213 ft | 103 kts | 121° |
| 2026-04-22 21:27 | 30.30720 | -84.16757 | 5276 ft | 104 kts | 121° |
| 2026-04-22 21:27 | 30.30328 | -84.16049 | 5366 ft | 104 kts | 121° |
| 2026-04-22 21:27 | 30.29939 | -84.15342 | 5438 ft | 104 kts | 121° |
| 2026-04-22 21:27 | 30.29549 | -84.14636 | 5505 ft | 104 kts | 121° |
| 2026-04-22 21:28 | 30.29157 | -84.13923 | 5567 ft | 105 kts | 121° |
| 2026-04-22 21:28 | 30.28762 | -84.13207 | 5624 ft | 106 kts | 121° |
| 2026-04-22 21:28 | 30.28369 | -84.12492 | 5712 ft | 105 kts | 121° |
| 2026-04-22 21:28 | 30.27975 | -84.11779 | 5812 ft | 105 kts | 120° |
| 2026-04-22 21:29 | 30.27583 | -84.11071 | 5891 ft | 105 kts | 120° |
| 2026-04-22 21:29 | 30.27188 | -84.10357 | 5957 ft | 105 kts | 120° |
| 2026-04-22 21:29 | 30.26798 | -84.09643 | 6036 ft | 104 kts | 119° |
| 2026-04-22 21:29 | 30.26539 | -84.09175 | 6079 ft | 105 kts | 120° |
| 2026-04-22 21:30 | 30.26144 | -84.08463 | 6194 ft | 102 kts | 118° |
| 2026-04-22 21:30 | 30.25769 | -84.07783 | 6294 ft | 101 kts | 118° |
| 2026-04-22 21:30 | 30.25388 | -84.07093 | 6351 ft | 102 kts | 119° |
| 2026-04-22 21:30 | 30.25006 | -84.06400 | 6410 ft | 102 kts | 117° |
| 2026-04-22 21:31 | 30.24624 | -84.05710 | 6463 ft | 102 kts | 119° |
| 2026-04-22 21:31 | 30.24240 | -84.05015 | 6515 ft | 103 kts | 119° |
| 2026-04-22 21:31 | 30.23765 | -84.04388 | 6551 ft | 106 kts | 142° |
| 2026-04-22 21:31 | 30.23054 | -84.04149 | 6578 ft | 110 kts | 174° |
| 2026-04-22 21:32 | 30.22284 | -84.04061 | 6578 ft | 112 kts | 172° |
| 2026-04-22 21:32 | 30.21500 | -84.03975 | 6583 ft | 114 kts | 171° |
| 2026-04-22 21:32 | 30.20851 | -84.03568 | 6572 ft | 107 kts | 111° |
| 2026-04-22 21:32 | 30.20888 | -84.02744 | 6586 ft | 105 kts | 76° |
| 2026-04-22 21:33 | 30.21041 | -84.01907 | 6580 ft | 107 kts | 76° |
| 2026-04-22 21:33 | 30.21202 | -84.01063 | 6581 ft | 107 kts | 77° |
| 2026-04-22 21:33 | 30.21272 | -84.00215 | 6578 ft | 109 kts | 92° |
| 2026-04-22 21:33 | 30.21036 | -83.99385 | 6577 ft | 111 kts | 117° |
| 2026-04-22 21:34 | 30.20654 | -83.98604 | 6581 ft | 112 kts | 117° |
| 2026-04-22 21:34 | 30.20250 | -83.97833 | 6580 ft | 112 kts | 119° |
| 2026-04-22 21:34 | 30.19835 | -83.97067 | 6582 ft | 113 kts | 118° |
| 2026-04-22 21:34 | 30.19417 | -83.96301 | 6581 ft | 113 kts | 120° |
| 2026-04-22 21:35 | 30.18994 | -83.95533 | 6579 ft | 114 kts | 120° |
| 2026-04-22 21:35 | 30.18567 | -83.94763 | 6582 ft | 114 kts | 118° |
| 2026-04-22 21:35 | 30.18140 | -83.93991 | 6579 ft | 114 kts | 120° |
| 2026-04-22 21:35 | 30.17712 | -83.93218 | 6579 ft | 114 kts | 119° |
| 2026-04-22 21:36 | 30.17288 | -83.92453 | 6582 ft | 113 kts | 120° |
| 2026-04-22 21:36 | 30.16860 | -83.91679 | 6579 ft | 115 kts | 118° |
| 2026-04-22 21:36 | 30.16428 | -83.90904 | 6578 ft | 114 kts | 118° |
| 2026-04-22 21:36 | 30.16005 | -83.90140 | 6574 ft | 113 kts | 120° |
| 2026-04-22 21:37 | 30.15583 | -83.89379 | 6572 ft | 112 kts | 120° |
| 2026-04-22 21:37 | 30.15165 | -83.88625 | 6574 ft | 111 kts | 119° |
| 2026-04-22 21:37 | 30.14747 | -83.87874 | 6573 ft | 110 kts | 119° |
| 2026-04-22 21:37 | 30.14330 | -83.87123 | 6577 ft | 112 kts | 121° |
| 2026-04-22 21:38 | 30.13906 | -83.86358 | 6573 ft | 113 kts | 121° |
| 2026-04-22 21:38 | 30.13484 | -83.85597 | 6573 ft | 112 kts | 120° |
| 2026-04-22 21:38 | 30.13062 | -83.84838 | 6573 ft | 112 kts | 120° |
| 2026-04-22 21:38 | 30.12650 | -83.84096 | 6574 ft | 111 kts | 120° |
| 2026-04-22 21:39 | 30.12231 | -83.83341 | 6572 ft | 112 kts | 120° |
| 2026-04-22 21:39 | 30.11809 | -83.82582 | 6578 ft | 112 kts | 119° |
| 2026-04-22 21:39 | 30.11385 | -83.81820 | 6580 ft | 113 kts | 119° |
| 2026-04-22 21:39 | 30.10959 | -83.81053 | 6581 ft | 113 kts | 120° |
| 2026-04-22 21:40 | 30.10536 | -83.80290 | 6581 ft | 113 kts | 119° |
| 2026-04-22 21:40 | 30.10108 | -83.79523 | 6578 ft | 114 kts | 120° |
| 2026-04-22 21:40 | 30.09680 | -83.78753 | 6581 ft | 114 kts | 119° |
| 2026-04-22 21:40 | 30.09252 | -83.77983 | 6577 ft | 114 kts | 120° |
| 2026-04-22 21:41 | 30.08820 | -83.77208 | 6573 ft | 115 kts | 120° |
| 2026-04-22 21:41 | 30.08388 | -83.76431 | 6572 ft | 115 kts | 120° |
| 2026-04-22 21:41 | 30.07952 | -83.75648 | 6575 ft | 116 kts | 120° |
| 2026-04-22 21:41 | 30.07517 | -83.74865 | 6573 ft | 116 kts | 120° |
| 2026-04-22 21:42 | 30.07087 | -83.74094 | 6571 ft | 116 kts | 119° |
| 2026-04-22 21:42 | 30.06650 | -83.73310 | 6566 ft | 116 kts | 120° |
| 2026-04-22 21:42 | 30.06214 | -83.72527 | 6568 ft | 116 kts | 120° |
| 2026-04-22 21:42 | 30.05783 | -83.71752 | 6568 ft | 114 kts | 119° |
| 2026-04-22 21:43 | 30.05354 | -83.70983 | 6570 ft | 114 kts | 119° |
| 2026-04-22 21:43 | 30.04924 | -83.70213 | 6567 ft | 114 kts | 119° |
| 2026-04-22 21:43 | 30.04496 | -83.69445 | 6566 ft | 114 kts | 120° |
| 2026-04-22 21:43 | 30.04060 | -83.68663 | 6571 ft | 116 kts | 119° |
| 2026-04-22 21:44 | 30.03620 | -83.67874 | 6570 ft | 117 kts | 119° |
| 2026-04-22 21:44 | 30.03181 | -83.67088 | 6564 ft | 116 kts | 120° |
| 2026-04-22 21:44 | 30.02744 | -83.66303 | 6566 ft | 116 kts | 119° |
| 2026-04-22 21:44 | 30.02310 | -83.65525 | 6562 ft | 115 kts | 120° |
| 2026-04-22 21:45 | 30.01875 | -83.64746 | 6559 ft | 115 kts | 120° |
| 2026-04-22 21:45 | 30.01443 | -83.63971 | 6561 ft | 114 kts | 119° |
| 2026-04-22 21:45 | 30.01013 | -83.63202 | 6557 ft | 114 kts | 120° |
| 2026-04-22 21:45 | 30.00583 | -83.62434 | 6562 ft | 113 kts | 119° |
| 2026-04-22 21:46 | 30.00154 | -83.61665 | 6565 ft | 114 kts | 119° |
| 2026-04-22 21:46 | 29.99725 | -83.60896 | 6563 ft | 113 kts | 119° |
| 2026-04-22 21:46 | 29.99301 | -83.60139 | 6560 ft | 112 kts | 119° |
| 2026-04-22 21:46 | 29.98877 | -83.59381 | 6558 ft | 112 kts | 120° |
| 2026-04-22 21:47 | 29.98454 | -83.58623 | 6556 ft | 112 kts | 120° |
| 2026-04-22 21:47 | 29.98033 | -83.57869 | 6557 ft | 112 kts | 120° |
| 2026-04-22 21:47 | 29.97616 | -83.57123 | 6556 ft | 112 kts | 120° |
| 2026-04-22 21:47 | 29.97192 | -83.56366 | 6556 ft | 113 kts | 120° |
| 2026-04-22 21:48 | 29.96767 | -83.55606 | 6557 ft | 113 kts | 120° |
| 2026-04-22 21:48 | 29.96344 | -83.54848 | 6557 ft | 112 kts | 120° |
| 2026-04-22 21:48 | 29.95920 | -83.54092 | 6559 ft | 112 kts | 119° |
| 2026-04-22 21:48 | 29.95498 | -83.53338 | 6556 ft | 112 kts | 121° |
| 2026-04-22 21:49 | 29.95075 | -83.52584 | 6564 ft | 112 kts | 122° |
| 2026-04-22 21:49 | 29.94650 | -83.51823 | 6565 ft | 113 kts | 122° |
| 2026-04-22 21:49 | 29.94221 | -83.51056 | 6564 ft | 114 kts | 122° |
| 2026-04-22 21:49 | 29.93790 | -83.50286 | 6566 ft | 114 kts | 122° |
| 2026-04-22 21:50 | 29.93360 | -83.49520 | 6566 ft | 114 kts | 122° |
| 2026-04-22 21:50 | 29.92927 | -83.48749 | 6561 ft | 115 kts | 122° |
| 2026-04-22 21:50 | 29.92496 | -83.47978 | 6565 ft | 114 kts | 122° |
| 2026-04-22 21:50 | 29.92069 | -83.47216 | 6561 ft | 114 kts | 122° |
| 2026-04-22 21:51 | 29.91640 | -83.46451 | 6560 ft | 114 kts | 122° |
| 2026-04-22 21:51 | 29.91209 | -83.45682 | 6561 ft | 114 kts | 122° |
| 2026-04-22 21:51 | 29.90778 | -83.44913 | 6562 ft | 114 kts | 122° |
| 2026-04-22 21:52 | 29.89920 | -83.43384 | 6562 ft | 113 kts | 122° |
| 2026-04-22 21:52 | 29.89496 | -83.42631 | 6560 ft | 113 kts | 122° |
| 2026-04-22 21:52 | 29.89069 | -83.41868 | 6559 ft | 113 kts | 122° |
| 2026-04-22 21:52 | 29.88642 | -83.41109 | 6561 ft | 113 kts | 122° |
| 2026-04-22 21:53 | 29.88214 | -83.40348 | 6562 ft | 113 kts | 122° |
| 2026-04-22 21:53 | 29.87785 | -83.39582 | 6566 ft | 113 kts | 122° |
| 2026-04-22 21:53 | 29.87357 | -83.38821 | 6562 ft | 113 kts | 122° |
| 2026-04-22 21:53 | 29.86929 | -83.38059 | 6559 ft | 113 kts | 122° |
| 2026-04-22 21:54 | 29.86503 | -83.37299 | 6556 ft | 113 kts | 122° |
| 2026-04-22 21:54 | 29.86074 | -83.36537 | 6551 ft | 113 kts | 122° |
| 2026-04-22 21:54 | 29.85648 | -83.35779 | 6551 ft | 113 kts | 122° |
| 2026-04-22 21:54 | 29.85364 | -83.35273 | 6550 ft | 113 kts | 122° |
| 2026-04-22 21:55 | 29.84794 | -83.34261 | 6554 ft | 113 kts | 122° |
| 2026-04-22 21:55 | 29.84367 | -83.33502 | 6549 ft | 113 kts | 122° |
| 2026-04-22 21:55 | 29.83939 | -83.32741 | 6550 ft | 113 kts | 122° |
| 2026-04-22 21:55 | 29.83512 | -83.31980 | 6547 ft | 113 kts | 122° |
| 2026-04-22 21:56 | 29.83086 | -83.31223 | 6551 ft | 113 kts | 122° |
| 2026-04-22 21:56 | 29.82665 | -83.30476 | 6551 ft | 112 kts | 122° |
| 2026-04-22 21:56 | 29.82240 | -83.29722 | 6549 ft | 112 kts | 122° |
| 2026-04-22 21:56 | 29.81815 | -83.28966 | 6547 ft | 113 kts | 122° |
| 2026-04-22 21:57 | 29.81389 | -83.28210 | 6548 ft | 113 kts | 122° |
| 2026-04-22 21:57 | 29.80960 | -83.27450 | 6545 ft | 113 kts | 122° |
| 2026-04-22 21:57 | 29.80532 | -83.26690 | 6543 ft | 114 kts | 122° |
| 2026-04-22 21:57 | 29.80100 | -83.25921 | 6544 ft | 114 kts | 122° |
| 2026-04-22 21:58 | 29.79667 | -83.25152 | 6548 ft | 115 kts | 122° |
| 2026-04-22 21:58 | 29.79231 | -83.24381 | 6551 ft | 115 kts | 122° |
| 2026-04-22 21:58 | 29.78796 | -83.23608 | 6549 ft | 115 kts | 122° |
| 2026-04-22 21:58 | 29.78358 | -83.22834 | 6552 ft | 116 kts | 122° |
| 2026-04-22 21:59 | 29.77919 | -83.22055 | 6547 ft | 115 kts | 122° |
| 2026-04-22 21:59 | 29.77486 | -83.21286 | 6546 ft | 114 kts | 122° |
| 2026-04-22 21:59 | 29.77051 | -83.20516 | 6544 ft | 114 kts | 122° |
| 2026-04-22 21:59 | 29.76619 | -83.19751 | 6546 ft | 114 kts | 122° |
| 2026-04-22 22:00 | 29.76189 | -83.18988 | 6538 ft | 114 kts | 122° |
| 2026-04-22 22:00 | 29.75757 | -83.18224 | 6542 ft | 114 kts | 122° |
| 2026-04-22 22:00 | 29.75323 | -83.17454 | 6540 ft | 115 kts | 122° |
| 2026-04-22 22:00 | 29.74891 | -83.16689 | 6538 ft | 114 kts | 122° |
| 2026-04-22 22:01 | 29.74457 | -83.15921 | 6545 ft | 115 kts | 122° |
| 2026-04-22 22:01 | 29.74018 | -83.15145 | 6540 ft | 116 kts | 124° |
| 2026-04-22 22:01 | 29.73616 | -83.14345 | 6549 ft | 115 kts | 118° |
| 2026-04-22 22:01 | 29.73239 | -83.13530 | 6548 ft | 115 kts | 119° |
| 2026-04-22 22:02 | 29.72861 | -83.12712 | 6548 ft | 116 kts | 120° |
| 2026-04-22 22:02 | 29.72484 | -83.11898 | 6549 ft | 115 kts | 120° |
| 2026-04-22 22:02 | 29.72115 | -83.11097 | 6549 ft | 115 kts | 120° |
| 2026-04-22 22:02 | 29.71738 | -83.10286 | 6547 ft | 115 kts | 119° |
| 2026-04-22 22:03 | 29.71364 | -83.09474 | 6549 ft | 115 kts | 120° |
| 2026-04-22 22:03 | 29.70988 | -83.08659 | 6550 ft | 116 kts | 119° |
| 2026-04-22 22:03 | 29.70612 | -83.07845 | 6546 ft | 114 kts | 119° |
| 2026-04-22 22:03 | 29.70240 | -83.07042 | 6543 ft | 113 kts | 119° |
| 2026-04-22 22:04 | 29.69873 | -83.06248 | 6543 ft | 113 kts | 120° |
| 2026-04-22 22:04 | 29.69502 | -83.05447 | 6543 ft | 113 kts | 119° |
| 2026-04-22 22:04 | 29.69131 | -83.04647 | 6542 ft | 113 kts | 120° |
| 2026-04-22 22:04 | 29.68765 | -83.03853 | 6541 ft | 112 kts | 119° |
| 2026-04-22 22:05 | 29.68400 | -83.03065 | 6540 ft | 112 kts | 120° |
| 2026-04-22 22:05 | 29.68034 | -83.02276 | 6541 ft | 112 kts | 120° |
| 2026-04-22 22:05 | 29.67670 | -83.01489 | 6541 ft | 111 kts | 120° |
| 2026-04-22 22:05 | 29.67307 | -83.00703 | 6539 ft | 111 kts | 119° |
| 2026-04-22 22:06 | 29.66942 | -82.99917 | 6539 ft | 111 kts | 119° |
| 2026-04-22 22:06 | 29.66579 | -82.99134 | 6539 ft | 111 kts | 120° |
| 2026-04-22 22:06 | 29.66217 | -82.98354 | 6538 ft | 111 kts | 119° |
| 2026-04-22 22:06 | 29.65852 | -82.97566 | 6540 ft | 112 kts | 120° |
| 2026-04-22 22:07 | 29.65486 | -82.96777 | 6541 ft | 112 kts | 120° |
| 2026-04-22 22:07 | 29.65122 | -82.95990 | 6542 ft | 112 kts | 120° |
| 2026-04-22 22:07 | 29.64756 | -82.95200 | 6542 ft | 112 kts | 120° |
| 2026-04-22 22:07 | 29.64395 | -82.94422 | 6543 ft | 112 kts | 120° |
| 2026-04-22 22:08 | 29.64027 | -82.93629 | 6546 ft | 113 kts | 120° |
| 2026-04-22 22:08 | 29.63656 | -82.92828 | 6550 ft | 114 kts | 118° |
| 2026-04-22 22:08 | 29.63284 | -82.92028 | 6548 ft | 113 kts | 119° |
| 2026-04-22 22:08 | 29.62913 | -82.91228 | 6546 ft | 113 kts | 119° |
| 2026-04-22 22:09 | 29.62545 | -82.90434 | 6548 ft | 112 kts | 119° |
| 2026-04-22 22:09 | 29.62180 | -82.89649 | 6545 ft | 112 kts | 118° |
| 2026-04-22 22:09 | 29.61813 | -82.88859 | 6544 ft | 113 kts | 118° |
| 2026-04-22 22:09 | 29.61441 | -82.88060 | 6548 ft | 114 kts | 118° |
| 2026-04-22 22:10 | 29.61069 | -82.87258 | 6549 ft | 114 kts | 118° |
| 2026-04-22 22:10 | 29.60697 | -82.86457 | 6550 ft | 114 kts | 118° |
| 2026-04-22 22:10 | 29.60322 | -82.85651 | 6549 ft | 114 kts | 118° |
| 2026-04-22 22:10 | 29.59950 | -82.84850 | 6556 ft | 114 kts | 118° |
| 2026-04-22 22:11 | 29.59579 | -82.84052 | 6551 ft | 113 kts | 118° |
| 2026-04-22 22:11 | 29.59209 | -82.83258 | 6556 ft | 113 kts | 119° |
| 2026-04-22 22:11 | 29.58839 | -82.82463 | 6552 ft | 113 kts | 119° |
| 2026-04-22 22:11 | 29.58470 | -82.81669 | 6552 ft | 112 kts | 119° |
| 2026-04-22 22:12 | 29.58102 | -82.80880 | 6549 ft | 112 kts | 119° |
| 2026-04-22 22:12 | 29.57736 | -82.80093 | 6550 ft | 112 kts | 119° |
| 2026-04-22 22:12 | 29.57364 | -82.79304 | 6551 ft | 113 kts | 121° |
| 2026-04-22 22:12 | 29.57021 | -82.78488 | 6559 ft | 114 kts | 118° |
| 2026-04-22 22:13 | 29.56634 | -82.77696 | 6558 ft | 114 kts | 120° |
| 2026-04-22 22:13 | 29.56254 | -82.76899 | 6557 ft | 113 kts | 119° |
| 2026-04-22 22:13 | 29.55881 | -82.76104 | 6561 ft | 113 kts | 120° |
| 2026-04-22 22:13 | 29.55512 | -82.75316 | 6557 ft | 111 kts | 119° |
| 2026-04-22 22:14 | 29.55146 | -82.74534 | 6554 ft | 111 kts | 119° |
| 2026-04-22 22:14 | 29.54780 | -82.73747 | 6554 ft | 113 kts | 119° |
| 2026-04-22 22:14 | 29.54410 | -82.72954 | 6559 ft | 112 kts | 119° |
| 2026-04-22 22:14 | 29.54038 | -82.72160 | 6558 ft | 113 kts | 119° |
| 2026-04-22 22:15 | 29.53670 | -82.71372 | 6554 ft | 114 kts | 119° |
| 2026-04-22 22:15 | 29.53296 | -82.70569 | 6556 ft | 114 kts | 119° |
| 2026-04-22 22:15 | 29.52922 | -82.69766 | 6562 ft | 114 kts | 119° |
| 2026-04-22 22:15 | 29.52549 | -82.68967 | 6564 ft | 113 kts | 120° |
| 2026-04-22 22:16 | 29.52176 | -82.68169 | 6563 ft | 114 kts | 119° |
| 2026-04-22 22:16 | 29.51930 | -82.67642 | 6566 ft | 113 kts | 119° |
| 2026-04-22 22:16 | 29.51557 | -82.66844 | 6565 ft | 113 kts | 119° |
| 2026-04-22 22:16 | 29.51186 | -82.66048 | 6565 ft | 112 kts | 119° |
| 2026-04-22 22:17 | 29.50817 | -82.65260 | 6559 ft | 112 kts | 119° |
| 2026-04-22 22:17 | 29.50447 | -82.64468 | 6559 ft | 112 kts | 119° |
| 2026-04-22 22:17 | 29.50077 | -82.63678 | 6564 ft | 112 kts | 119° |
| 2026-04-22 22:17 | 29.49706 | -82.62882 | 6562 ft | 113 kts | 119° |
| 2026-04-22 22:18 | 29.49334 | -82.62087 | 6557 ft | 113 kts | 119° |
| 2026-04-22 22:18 | 29.48960 | -82.61288 | 6561 ft | 114 kts | 119° |
| 2026-04-22 22:18 | 29.48585 | -82.60487 | 6566 ft | 114 kts | 119° |
| 2026-04-22 22:18 | 29.48213 | -82.59691 | 6560 ft | 113 kts | 119° |
| 2026-04-22 22:19 | 29.47843 | -82.58901 | 6561 ft | 112 kts | 119° |
| 2026-04-22 22:19 | 29.47473 | -82.58110 | 6565 ft | 112 kts | 119° |
| 2026-04-22 22:19 | 29.47108 | -82.57329 | 6559 ft | 112 kts | 119° |
| 2026-04-22 22:19 | 29.46737 | -82.56538 | 6562 ft | 113 kts | 119° |
| 2026-04-22 22:20 | 29.46366 | -82.55747 | 6557 ft | 113 kts | 119° |
| 2026-04-22 22:20 | 29.45995 | -82.54956 | 6569 ft | 112 kts | 119° |
| 2026-04-22 22:20 | 29.45624 | -82.54163 | 6570 ft | 114 kts | 119° |
| 2026-04-22 22:20 | 29.45248 | -82.53360 | 6571 ft | 115 kts | 119° |
| 2026-04-22 22:21 | 29.44871 | -82.52554 | 6568 ft | 115 kts | 119° |
| 2026-04-22 22:21 | 29.44494 | -82.51751 | 6572 ft | 113 kts | 119° |
| 2026-04-22 22:21 | 29.44119 | -82.50954 | 6572 ft | 113 kts | 119° |
| 2026-04-22 22:21 | 29.43747 | -82.50159 | 6570 ft | 113 kts | 119° |
| 2026-04-22 22:22 | 29.43374 | -82.49364 | 6574 ft | 113 kts | 120° |
| 2026-04-22 22:22 | 29.43005 | -82.48577 | 6572 ft | 112 kts | 120° |
| 2026-04-22 22:22 | 29.42638 | -82.47795 | 6571 ft | 111 kts | 119° |
| 2026-04-22 22:22 | 29.42272 | -82.47017 | 6564 ft | 111 kts | 119° |
| 2026-04-22 22:23 | 29.41908 | -82.46240 | 6565 ft | 110 kts | 119° |
| 2026-04-22 22:23 | 29.41545 | -82.45470 | 6564 ft | 110 kts | 119° |
| 2026-04-22 22:23 | 29.41179 | -82.44691 | 6564 ft | 111 kts | 119° |
| 2026-04-22 22:23 | 29.40813 | -82.43910 | 6565 ft | 111 kts | 119° |
| 2026-04-22 22:24 | 29.40448 | -82.43132 | 6566 ft | 111 kts | 119° |
| 2026-04-22 22:24 | 29.40084 | -82.42359 | 6566 ft | 109 kts | 119° |
| 2026-04-22 22:24 | 29.39722 | -82.41589 | 6563 ft | 110 kts | 119° |
| 2026-04-22 22:24 | 29.39360 | -82.40820 | 6566 ft | 110 kts | 119° |
| 2026-04-22 22:25 | 29.38997 | -82.40050 | 6580 ft | 110 kts | 120° |
| 2026-04-22 22:25 | 29.38635 | -82.39276 | 6583 ft | 110 kts | 120° |
| 2026-04-22 22:25 | 29.38268 | -82.38496 | 6580 ft | 112 kts | 120° |
| 2026-04-22 22:25 | 29.37897 | -82.37707 | 6580 ft | 113 kts | 120° |
| 2026-04-22 22:26 | 29.37524 | -82.36915 | 6580 ft | 113 kts | 120° |
| 2026-04-22 22:26 | 29.37154 | -82.36130 | 6577 ft | 114 kts | 119° |
| 2026-04-22 22:26 | 29.36777 | -82.35328 | 6578 ft | 114 kts | 120° |
| 2026-04-22 22:26 | 29.36401 | -82.34529 | 6578 ft | 113 kts | 120° |
| 2026-04-22 22:27 | 29.36025 | -82.33732 | 6578 ft | 113 kts | 120° |
| 2026-04-22 22:27 | 29.35652 | -82.32939 | 6578 ft | 113 kts | 120° |
| 2026-04-22 22:27 | 29.35276 | -82.32143 | 6579 ft | 113 kts | 120° |
| 2026-04-22 22:27 | 29.34901 | -82.31346 | 6578 ft | 113 kts | 120° |
| 2026-04-22 22:28 | 29.34526 | -82.30553 | 6577 ft | 113 kts | 120° |
| 2026-04-22 22:28 | 29.34153 | -82.29760 | 6578 ft | 114 kts | 120° |
| 2026-04-22 22:28 | 29.33775 | -82.28959 | 6576 ft | 114 kts | 120° |
| 2026-04-22 22:28 | 29.33398 | -82.28160 | 6579 ft | 114 kts | 120° |
| 2026-04-22 22:29 | 29.33022 | -82.27360 | 6579 ft | 114 kts | 120° |
| 2026-04-22 22:29 | 29.32643 | -82.26555 | 6575 ft | 115 kts | 120° |
| 2026-04-22 22:29 | 29.32267 | -82.25763 | 6573 ft | 114 kts | 119° |
| 2026-04-22 22:29 | 29.31890 | -82.24966 | 6576 ft | 113 kts | 120° |
| 2026-04-22 22:30 | 29.31515 | -82.24169 | 6575 ft | 114 kts | 120° |
| 2026-04-22 22:30 | 29.31131 | -82.23356 | 6576 ft | 115 kts | 120° |
| 2026-04-22 22:30 | 29.30752 | -82.22550 | 6578 ft | 118 kts | 120° |
| 2026-04-22 22:30 | 29.30358 | -82.21716 | 6577 ft | 121 kts | 120° |
| 2026-04-22 22:31 | 29.29946 | -82.20847 | 6576 ft | 123 kts | 120° |
| 2026-04-22 22:31 | 29.29542 | -82.19992 | 6576 ft | 124 kts | 119° |
| 2026-04-22 22:31 | 29.29047 | -82.19195 | 6573 ft | 123 kts | 142° |
| 2026-04-22 22:31 | 29.28293 | -82.18755 | 6571 ft | 122 kts | 158° |
| 2026-04-22 22:32 | 29.27510 | -82.18383 | 6575 ft | 122 kts | 157° |
| 2026-04-22 22:32 | 29.26730 | -82.18012 | 6575 ft | 121 kts | 157° |
| 2026-04-22 22:32 | 29.25963 | -82.17647 | 6565 ft | 119 kts | 157° |
| 2026-04-22 22:32 | 29.25203 | -82.17286 | 6559 ft | 117 kts | 157° |
| 2026-04-22 22:33 | 29.24454 | -82.16929 | 6558 ft | 116 kts | 157° |
| 2026-04-22 22:33 | 29.23713 | -82.16576 | 6556 ft | 115 kts | 157° |
| 2026-04-22 22:33 | 29.22976 | -82.16227 | 6555 ft | 115 kts | 157° |
| 2026-04-22 22:33 | 29.22237 | -82.15873 | 6558 ft | 116 kts | 157° |
| 2026-04-22 22:34 | 29.21490 | -82.15517 | 6558 ft | 116 kts | 157° |
| 2026-04-22 22:34 | 29.20746 | -82.15164 | 6559 ft | 116 kts | 157° |
| 2026-04-22 22:34 | 29.20004 | -82.14811 | 6560 ft | 115 kts | 157° |
| 2026-04-22 22:34 | 29.19269 | -82.14461 | 6558 ft | 114 kts | 157° |
| 2026-04-22 22:35 | 29.18537 | -82.14113 | 6558 ft | 114 kts | 157° |
| 2026-04-22 22:35 | 29.17803 | -82.13763 | 6556 ft | 114 kts | 157° |
| 2026-04-22 22:35 | 29.17068 | -82.13414 | 6557 ft | 114 kts | 157° |
| 2026-04-22 22:35 | 29.16334 | -82.13066 | 6557 ft | 114 kts | 157° |
| 2026-04-22 22:36 | 29.15614 | -82.12723 | 6557 ft | 114 kts | 157° |
| 2026-04-22 22:36 | 29.14884 | -82.12376 | 6558 ft | 114 kts | 157° |
| 2026-04-22 22:36 | 29.14154 | -82.12029 | 6558 ft | 114 kts | 157° |
| 2026-04-22 22:36 | 29.13425 | -82.11683 | 6559 ft | 113 kts | 157° |
| 2026-04-22 22:37 | 29.12697 | -82.11337 | 6559 ft | 113 kts | 157° |
| 2026-04-22 22:37 | 29.11969 | -82.10990 | 6559 ft | 113 kts | 157° |
| 2026-04-22 22:37 | 29.11244 | -82.10646 | 6558 ft | 112 kts | 157° |
| 2026-04-22 22:37 | 29.10522 | -82.10304 | 6558 ft | 112 kts | 157° |
| 2026-04-22 22:38 | 29.09799 | -82.09960 | 6558 ft | 112 kts | 157° |
| 2026-04-22 22:38 | 29.09078 | -82.09619 | 6560 ft | 112 kts | 157° |
| 2026-04-22 22:38 | 29.08361 | -82.09278 | 6559 ft | 111 kts | 157° |
| 2026-04-22 22:38 | 29.07642 | -82.08938 | 6561 ft | 112 kts | 157° |
| 2026-04-22 22:39 | 29.06919 | -82.08594 | 6563 ft | 113 kts | 157° |
| 2026-04-22 22:39 | 29.06194 | -82.08249 | 6563 ft | 113 kts | 157° |
| 2026-04-22 22:39 | 29.05466 | -82.07904 | 6565 ft | 113 kts | 157° |
| 2026-04-22 22:39 | 29.04736 | -82.07558 | 6565 ft | 114 kts | 157° |
| 2026-04-22 22:40 | 29.04006 | -82.07212 | 6565 ft | 114 kts | 157° |
| 2026-04-22 22:40 | 29.03286 | -82.06871 | 6565 ft | 114 kts | 157° |
| 2026-04-22 22:40 | 29.02547 | -82.06520 | 6562 ft | 114 kts | 157° |
| 2026-04-22 22:40 | 29.01816 | -82.06174 | 6563 ft | 114 kts | 157° |
| 2026-04-22 22:41 | 29.01084 | -82.05827 | 6563 ft | 113 kts | 157° |
| 2026-04-22 22:41 | 29.00366 | -82.05487 | 6565 ft | 113 kts | 156° |
| 2026-04-22 22:41 | 28.99643 | -82.05145 | 6568 ft | 112 kts | 156° |
| 2026-04-22 22:41 | 28.98927 | -82.04804 | 6567 ft | 111 kts | 155° |
| 2026-04-22 22:42 | 28.98329 | -82.04267 | 6563 ft | 110 kts | 133° |
| 2026-04-22 22:42 | 28.97788 | -82.03638 | 6565 ft | 111 kts | 135° |
| 2026-04-22 22:42 | 28.97249 | -82.03010 | 6567 ft | 110 kts | 135° |
| 2026-04-22 22:42 | 28.96714 | -82.02389 | 6565 ft | 109 kts | 135° |
| 2026-04-22 22:43 | 28.96185 | -82.01771 | 6562 ft | 108 kts | 135° |
| 2026-04-22 22:43 | 28.95658 | -82.01159 | 6560 ft | 108 kts | 135° |
| 2026-04-22 22:43 | 28.95134 | -82.00549 | 6563 ft | 107 kts | 135° |
| 2026-04-22 22:43 | 28.94612 | -81.99942 | 6563 ft | 108 kts | 135° |
| 2026-04-22 22:44 | 28.94082 | -81.99326 | 6564 ft | 109 kts | 135° |
| 2026-04-22 22:44 | 28.93555 | -81.98711 | 6568 ft | 108 kts | 135° |
| 2026-04-22 22:44 | 28.93028 | -81.98099 | 6567 ft | 108 kts | 135° |
| 2026-04-22 22:44 | 28.92505 | -81.97490 | 6564 ft | 108 kts | 135° |
| 2026-04-22 22:45 | 28.91973 | -81.96872 | 6561 ft | 110 kts | 135° |
| 2026-04-22 22:45 | 28.91437 | -81.96248 | 6564 ft | 110 kts | 135° |
| 2026-04-22 22:45 | 28.90899 | -81.95621 | 6566 ft | 110 kts | 135° |
| 2026-04-22 22:45 | 28.90362 | -81.94996 | 6569 ft | 110 kts | 135° |
| 2026-04-22 22:46 | 28.89824 | -81.94371 | 6566 ft | 111 kts | 135° |
| 2026-04-22 22:46 | 28.89285 | -81.93745 | 6565 ft | 110 kts | 135° |
| 2026-04-22 22:46 | 28.88754 | -81.93127 | 6564 ft | 109 kts | 135° |
| 2026-04-22 22:46 | 28.88231 | -81.92520 | 6563 ft | 109 kts | 135° |
| 2026-04-22 22:47 | 28.87764 | -81.91832 | 6563 ft | 111 kts | 123° |
| 2026-04-22 22:47 | 28.87341 | -81.91098 | 6570 ft | 111 kts | 124° |
| 2026-04-22 22:47 | 28.86912 | -81.90356 | 6573 ft | 113 kts | 125° |
| 2026-04-22 22:47 | 28.86476 | -81.89605 | 6570 ft | 114 kts | 125° |
| 2026-04-22 22:48 | 28.86041 | -81.88854 | 6570 ft | 113 kts | 125° |
| 2026-04-22 22:48 | 28.85605 | -81.88103 | 6566 ft | 114 kts | 124° |
| 2026-04-22 22:48 | 28.85169 | -81.87351 | 6565 ft | 113 kts | 125° |
| 2026-04-22 22:48 | 28.84736 | -81.86605 | 6565 ft | 113 kts | 125° |
| 2026-04-22 22:49 | 28.84306 | -81.85863 | 6562 ft | 112 kts | 124° |
| 2026-04-22 22:49 | 28.83872 | -81.85117 | 6560 ft | 113 kts | 124° |
| 2026-04-22 22:49 | 28.83438 | -81.84370 | 6562 ft | 113 kts | 124° |
| 2026-04-22 22:49 | 28.83006 | -81.83625 | 6564 ft | 112 kts | 124° |
| 2026-04-22 22:50 | 28.82579 | -81.82892 | 6566 ft | 112 kts | 125° |
| 2026-04-22 22:50 | 28.82149 | -81.82152 | 6560 ft | 112 kts | 124° |
| 2026-04-22 22:50 | 28.81717 | -81.81407 | 6451 ft | 109 kts | 125° |
| 2026-04-22 22:50 | 28.81305 | -81.80698 | 6173 ft | 108 kts | 124° |
| 2026-04-22 22:51 | 28.80899 | -81.80003 | 5856 ft | 104 kts | 123° |
| 2026-04-22 22:51 | 28.80494 | -81.79307 | 5520 ft | 107 kts | 122° |
| 2026-04-22 22:51 | 28.80078 | -81.78589 | 5202 ft | 110 kts | 122° |
| 2026-04-22 22:51 | 28.79651 | -81.77854 | 4888 ft | 112 kts | 122° |
| 2026-04-22 22:52 | 28.79224 | -81.77120 | 4588 ft | 110 kts | 122° |
| 2026-04-22 22:52 | 28.78859 | -81.76402 | 4567 ft | 105 kts | 109° |
| 2026-04-22 22:52 | 28.78724 | -81.75568 | 4576 ft | 109 kts | 102° |
| 2026-04-22 22:52 | 28.78587 | -81.74704 | 4571 ft | 112 kts | 101° |
| 2026-04-22 22:53 | 28.78449 | -81.73829 | 4570 ft | 112 kts | 101° |
| 2026-04-22 22:53 | 28.78314 | -81.72961 | 4574 ft | 111 kts | 102° |
| 2026-04-22 22:53 | 28.78177 | -81.72094 | 4571 ft | 111 kts | 102° |
| 2026-04-22 22:53 | 28.78041 | -81.71226 | 4570 ft | 111 kts | 102° |
| 2026-04-22 22:54 | 28.77905 | -81.70358 | 4570 ft | 111 kts | 102° |
| 2026-04-22 22:54 | 28.77769 | -81.69489 | 4549 ft | 113 kts | 101° |
| 2026-04-22 22:54 | 28.77634 | -81.68631 | 4313 ft | 106 kts | 102° |
| 2026-04-22 22:54 | 28.77506 | -81.67829 | 4006 ft | 101 kts | 101° |
| 2026-04-22 22:55 | 28.77384 | -81.67050 | 3701 ft | 99 kts | 101° |
| 2026-04-22 22:55 | 28.77266 | -81.66294 | 3415 ft | 95 kts | 101° |
| 2026-04-22 22:55 | 28.77036 | -81.64828 | 2809 ft | 94 kts | 102° |
| 2026-04-22 22:56 | 28.76923 | -81.64109 | 2546 ft | 88 kts | 103° |
| 2026-04-22 22:56 | 28.76816 | -81.63414 | 2589 ft | 93 kts | 101° |
| 2026-04-22 22:56 | 28.76697 | -81.62647 | 2580 ft | 103 kts | 101° |
| 2026-04-22 22:56 | 28.76568 | -81.61823 | 2572 ft | 108 kts | 101° |
| 2026-04-22 22:57 | 28.76436 | -81.60984 | 2572 ft | 109 kts | 101° |
| 2026-04-22 22:57 | 28.76284 | -81.60135 | 2555 ft | 109 kts | 110° |
| 2026-04-22 22:57 | 28.75812 | -81.59496 | 2577 ft | 108 kts | 143° |
| 2026-04-22 22:57 | 28.75087 | -81.59190 | 2576 ft | 116 kts | 166° |
| 2026-04-22 22:58 | 28.74262 | -81.59255 | 2574 ft | 124 kts | 189° |
| 2026-04-22 22:58 | 28.73481 | -81.59701 | 2576 ft | 127 kts | 208° |
| 2026-04-22 22:58 | 28.72745 | -81.60264 | 2576 ft | 128 kts | 208° |
| 2026-04-22 22:58 | 28.72009 | -81.60693 | 2545 ft | 108 kts | 181° |
| 2026-04-22 22:59 | 28.71321 | -81.61057 | 2575 ft | 112 kts | 210° |
| 2026-04-22 22:59 | 28.70630 | -81.61178 | 2562 ft | 100 kts | 145° |
| 2026-04-22 22:59 | 28.70320 | -81.60517 | 2578 ft | 98 kts | 108° |
| 2026-04-22 22:59 | 28.70197 | -81.59747 | 2578 ft | 101 kts | 91° |
| 2026-04-22 23:00 | 28.70278 | -81.58938 | 2576 ft | 107 kts | 81° |
| 2026-04-22 23:00 | 28.70442 | -81.58097 | 2581 ft | 111 kts | 82° |
| 2026-04-22 23:00 | 28.70593 | -81.57214 | 2573 ft | 114 kts | 83° |
| 2026-04-22 23:00 | 28.70716 | -81.56333 | 2573 ft | 114 kts | 84° |
| 2026-04-22 23:01 | 28.70827 | -81.55440 | 2575 ft | 115 kts | 85° |
| 2026-04-22 23:01 | 28.70933 | -81.54537 | 2578 ft | 114 kts | 86° |
| 2026-04-22 23:01 | 28.71035 | -81.53648 | 2574 ft | 113 kts | 87° |
| 2026-04-22 23:01 | 28.71135 | -81.52776 | 2569 ft | 108 kts | 85° |
| 2026-04-22 23:02 | 28.71230 | -81.51942 | 2566 ft | 105 kts | 86° |
| 2026-04-22 23:02 | 28.71322 | -81.51130 | 2564 ft | 102 kts | 87° |
| 2026-04-22 23:02 | 28.71412 | -81.50324 | 2557 ft | 103 kts | 87° |
| 2026-04-22 23:02 | 28.71505 | -81.49503 | 2572 ft | 107 kts | 86° |
| 2026-04-22 23:03 | 28.71601 | -81.48651 | 2576 ft | 111 kts | 85° |
| 2026-04-22 23:03 | 28.71697 | -81.47803 | 2568 ft | 102 kts | 86° |
| 2026-04-22 23:03 | 28.71785 | -81.47019 | 2561 ft | 98 kts | 85° |
| 2026-04-22 23:03 | 28.71871 | -81.46248 | 2565 ft | 98 kts | 85° |
| 2026-04-22 23:04 | 28.71958 | -81.45473 | 2566 ft | 100 kts | 87° |
| 2026-04-22 23:04 | 28.72017 | -81.44954 | 2567 ft | 99 kts | 87° |
| 2026-04-22 23:04 | 28.72105 | -81.44175 | 2563 ft | 99 kts | 85° |
| 2026-04-22 23:04 | 28.72191 | -81.43403 | 2564 ft | 98 kts | 84° |
| 2026-04-22 23:05 | 28.72278 | -81.42627 | 2560 ft | 99 kts | 84° |
| 2026-04-22 23:05 | 28.72366 | -81.41847 | 2562 ft | 99 kts | 86° |
| 2026-04-22 23:05 | 28.72452 | -81.41072 | 2559 ft | 98 kts | 84° |
| 2026-04-22 23:05 | 28.72538 | -81.40308 | 2560 ft | 97 kts | 86° |
| 2026-04-22 23:06 | 28.72623 | -81.39551 | 2557 ft | 96 kts | 85° |
| 2026-04-22 23:06 | 28.72708 | -81.38795 | 2562 ft | 97 kts | 86° |
| 2026-04-22 23:06 | 28.72794 | -81.38027 | 2563 ft | 98 kts | 86° |
| 2026-04-22 23:06 | 28.72882 | -81.37246 | 2564 ft | 100 kts | 86° |
| 2026-04-22 23:07 | 28.72969 | -81.36460 | 2565 ft | 100 kts | 85° |
| 2026-04-22 23:07 | 28.73057 | -81.35676 | 2570 ft | 100 kts | 85° |
| 2026-04-22 23:07 | 28.73144 | -81.34893 | 2569 ft | 101 kts | 86° |
| 2026-04-22 23:07 | 28.73233 | -81.34096 | 2570 ft | 101 kts | 89° |
| 2026-04-22 23:08 | 28.73306 | -81.33300 | 2565 ft | 102 kts | 88° |
| 2026-04-22 23:08 | 28.73391 | -81.32500 | 2565 ft | 102 kts | 86° |
| 2026-04-22 23:08 | 28.73472 | -81.31691 | 2567 ft | 103 kts | 93° |
| 2026-04-22 23:08 | 28.73042 | -81.31110 | 2576 ft | 110 kts | 163° |
| 2026-04-22 23:09 | 28.72258 | -81.31081 | 2571 ft | 114 kts | 173° |
| 2026-04-22 23:09 | 28.71472 | -81.31064 | 2575 ft | 112 kts | 173° |
| 2026-04-22 23:09 | 28.70696 | -81.31050 | 2576 ft | 113 kts | 173° |
| 2026-04-22 23:09 | 28.69887 | -81.31025 | 2573 ft | 118 kts | 173° |
| 2026-04-22 23:10 | 28.69052 | -81.31008 | 2576 ft | 121 kts | 173° |
| 2026-04-22 23:10 | 28.68209 | -81.30995 | 2572 ft | 121 kts | 174° |
| 2026-04-22 23:10 | 28.67363 | -81.31011 | 2569 ft | 123 kts | 181° |
| 2026-04-22 23:10 | 28.66511 | -81.31175 | 2574 ft | 125 kts | 186° |
| 2026-04-22 23:11 | 28.65678 | -81.31421 | 2568 ft | 119 kts | 189° |
| 2026-04-22 23:11 | 28.64912 | -81.31677 | 2550 ft | 110 kts | 189° |
| 2026-04-22 23:11 | 28.64202 | -81.31939 | 2407 ft | 99 kts | 189° |
| 2026-04-22 23:11 | 28.63541 | -81.32138 | 2272 ft | 98 kts | 182° |
| 2026-04-22 23:12 | 28.62871 | -81.32299 | 2109 ft | 99 kts | 184° |
| 2026-04-22 23:12 | 28.62188 | -81.32449 | 1935 ft | 100 kts | 183° |
| 2026-04-22 23:12 | 28.61476 | -81.32578 | 1811 ft | 108 kts | 179° |
| 2026-04-22 23:12 | 28.60719 | -81.32660 | 1673 ft | 110 kts | 176° |
| 2026-04-22 23:13 | 28.59982 | -81.32721 | 1563 ft | 100 kts | 171° |
| 2026-04-22 23:13 | 28.59340 | -81.32738 | 1559 ft | 86 kts | 170° |
| 2026-04-22 23:13 | 28.58753 | -81.32695 | 1554 ft | 84 kts | 168° |
| 2026-04-22 23:13 | 28.58171 | -81.32641 | 1560 ft | 85 kts | 168° |
| 2026-04-22 23:14 | 28.57565 | -81.32557 | 1490 ft | 91 kts | 167° |
| 2026-04-22 23:14 | 28.56926 | -81.32468 | 1431 ft | 94 kts | 166° |
| 2026-04-22 23:14 | 28.56276 | -81.32398 | 1379 ft | 93 kts | 168° |
| 2026-04-22 23:14 | 28.55640 | -81.32307 | 1307 ft | 92 kts | 170° |
| 2026-04-22 23:15 | 28.54998 | -81.32296 | 1226 ft | 92 kts | 172° |
| 2026-04-22 23:15 | 28.54324 | -81.32306 | 1175 ft | 101 kts | 177° |
| 2026-04-22 23:15 | 28.53626 | -81.32335 | 1140 ft | 96 kts | 175° |
| 2026-04-22 23:15 | 28.52979 | -81.32373 | 1067 ft | 92 kts | 176° |
| 2026-04-22 23:16 | 28.52345 | -81.32404 | 1074 ft | 90 kts | 175° |
| 2026-04-22 23:16 | 28.51764 | -81.32473 | 1075 ft | 83 kts | 175° |
| 2026-04-22 23:16 | 28.51211 | -81.32491 | 998 ft | 77 kts | 171° |
| 2026-04-22 23:16 | 28.50670 | -81.32455 | 873 ft | 79 kts | 167° |
| 2026-04-22 23:17 | 28.50078 | -81.32425 | 765 ft | 89 kts | 169° |
| 2026-04-22 23:17 | 28.49491 | -81.32378 | 663 ft | 82 kts | 166° |
| 2026-04-22 23:17 | 28.48925 | -81.32324 | 629 ft | 82 kts | 167° |
| 2026-04-22 23:17 | 28.48352 | -81.32281 | 579 ft | 81 kts | 172° |
| 2026-04-22 23:18 | 28.47779 | -81.32242 | 536 ft | 83 kts | 176° |
| 2026-04-22 23:18 | 28.47210 | -81.32271 | 485 ft | 78 kts | 176° |
| 2026-04-22 23:18 | 28.46664 | -81.32259 | 386 ft | 79 kts | 174° |
| 2026-04-22 23:18 | 28.46113 | -81.32243 | 326 ft | 78 kts | 178° |
| 2026-04-22 23:19 | 28.45592 | -81.32241 | 260 ft | 78 kts | 177° |
| 2026-04-22 23:19 | 28.45036 | -81.32234 | 172 ft | 82 kts | 180° |
| 2026-04-22 23:19 | 28.44504 | -81.32224 | 107 ft | 66 kts | 181° |
| 2026-04-22 23:19 | 28.44145 | -81.32222 | 106 ft | 43 kts | 181° |
| 2026-04-22 23:20 | 28.43852 | -81.32222 | 105 ft | 35 kts | 180° |
| 2026-04-22 23:20 | 28.43581 | -81.32216 | 99 ft | 43 kts | 180° |
| 2026-04-22 23:20 | 28.43278 | -81.32213 | 97 ft | 44 kts | 180° |
| 2026-04-22 23:20 | 28.42960 | -81.32212 | 98 ft | 46 kts | 179° |
| 2026-04-22 23:21 | 28.42619 | -81.32215 | 103 ft | 52 kts | 179° |
| 2026-04-22 23:21 | 28.42307 | -81.32205 | 103 ft | 39 kts | 178° |
| 2026-04-22 23:21 | 28.42074 | -81.32200 | 102 ft | 32 kts | 177° |
| 2026-04-22 23:21 | 28.41812 | -81.32198 | 95 ft | 37 kts | 180° |
| 2026-04-22 23:22 | 28.41589 | -81.32179 | 97 ft | 26 kts | 147° |
| 2026-04-22 23:22 | 28.41544 | -81.32058 | 96 ft | 12 kts | 89° |
| 2026-04-22 23:22 | 28.41545 | -81.31982 | 94 ft | 9 kts | 90° |
| 2026-04-22 23:22 | 28.41575 | -81.31882 | 95 ft | 16 kts | 20° |
| 2026-04-22 23:23 | 28.41671 | -81.31876 | 95 ft | 11 kts | 357° |
| 2026-04-22 23:23 | 28.41754 | -81.31875 | 97 ft | 11 kts | 1° |
| 2026-04-22 23:23 | 28.41820 | -81.31873 | 98 ft | 8 kts | 358° |
| 2026-04-22 23:23 | 28.41893 | -81.31877 | 98 ft | 14 kts | 359° |
| 2026-04-22 23:24 | 28.41998 | -81.31878 | 98 ft | 15 kts | 360° |
| 2026-04-22 23:24 | 28.42098 | -81.31877 | 100 ft | 12 kts | 3° |
| 2026-04-22 23:24 | 28.42191 | -81.31853 | 102 ft | 15 kts | 18° |
| 2026-04-22 23:24 | 28.42249 | -81.31834 | 102 ft | 10 kts | 14° |
| 2026-04-22 23:25 | 28.42344 | -81.31821 | 102 ft | 12 kts | 32° |
| 2026-04-22 23:25 | 28.42349 | -81.31725 | 100 ft | 11 kts | 76° |
| 2026-04-22 23:25 | 28.42389 | -81.31675 | 100 ft | 12 kts | 31° |
| 2026-04-22 23:25 | 28.42462 | -81.31623 | 98 ft | 13 kts | 25° |
| 2026-04-22 23:26 | 28.42532 | -81.31572 | 96 ft | 9 kts | 34° |
| 2026-04-22 23:26 | 28.42577 | -81.31538 | 96 ft | 2 kts | 33° |
| 2026-04-22 23:26 | 28.42579 | -81.31537 | 96 ft | 0 kts | 33° |